RYR1219 LKPR-EHAM
Flight info
| Callsign | RYR1219 |
|---|---|
| Flight time | 1h 11m |
| Altitude | 34000 |
| Route | BALTU6H/12 BALTU DCT DONAD DCT VARIK L602 SODRO DCT KATCE DCT APEBE DCT NORKU |
| Aircraft | B38M/M-SDE1FGHILORVWXY/HB1 |
Departure
| Time | 2026-05-06 20:03 |
|---|---|
| Airport | Václav Havel Airport Prague (LKPR) |
Arrival
| Time | 2026-05-06 21:14 |
|---|---|
| Airport | Amsterdam Airport Schiphol (EHAM) |
| Time | Latitude | Longitude | Altitude | Speed | Heading |
|---|---|---|---|---|---|
| 2026-05-06 19:35 | 50.10995 | 14.26797 | 1176 ft | 0 kts | 57° |
| 2026-05-06 19:45 | 50.10993 | 14.26793 | 1179 ft | 3 kts | 57° |
| 2026-05-06 19:45 | 50.10976 | 14.26763 | 1178 ft | 4 kts | 26° |
| 2026-05-06 19:45 | 50.10954 | 14.26759 | 1174 ft | 4 kts | 326° |
| 2026-05-06 19:45 | 50.10951 | 14.26762 | 1175 ft | 2 kts | 322° |
| 2026-05-06 19:48 | 50.10958 | 14.26754 | 1174 ft | 3 kts | 322° |
| 2026-05-06 19:48 | 50.10980 | 14.26728 | 1173 ft | 6 kts | 324° |
| 2026-05-06 19:49 | 50.11023 | 14.26687 | 1174 ft | 9 kts | 329° |
| 2026-05-06 19:49 | 50.11072 | 14.26611 | 1173 ft | 11 kts | 292° |
| 2026-05-06 19:49 | 50.11074 | 14.26482 | 1170 ft | 14 kts | 276° |
| 2026-05-06 19:49 | 50.11087 | 14.26318 | 1167 ft | 16 kts | 272° |
| 2026-05-06 19:50 | 50.11052 | 14.26165 | 1168 ft | 14 kts | 245° |
| 2026-05-06 19:50 | 50.11012 | 14.26028 | 1167 ft | 7 kts | 246° |
| 2026-05-06 19:50 | 50.11011 | 14.26024 | 1167 ft | 0 kts | 246° |
| 2026-05-06 19:50 | 50.11010 | 14.26019 | 1168 ft | 2 kts | 246° |
| 2026-05-06 19:51 | 50.10996 | 14.25973 | 1167 ft | 8 kts | 243° |
| 2026-05-06 19:51 | 50.10943 | 14.25890 | 1171 ft | 14 kts | 215° |
| 2026-05-06 19:51 | 50.10845 | 14.25783 | 1172 ft | 21 kts | 216° |
| 2026-05-06 19:51 | 50.10729 | 14.25660 | 1174 ft | 19 kts | 214° |
| 2026-05-06 19:52 | 50.10699 | 14.25628 | 1175 ft | 0 kts | 214° |
| 2026-05-06 19:52 | 50.10698 | 14.25627 | 1175 ft | 0 kts | 214° |
| 2026-05-06 19:53 | 50.10694 | 14.25623 | 1173 ft | 1 kts | 214° |
| 2026-05-06 19:53 | 50.10683 | 14.25612 | 1175 ft | 5 kts | 214° |
| 2026-05-06 19:53 | 50.10633 | 14.25554 | 1172 ft | 10 kts | 225° |
| 2026-05-06 19:53 | 50.10602 | 14.25477 | 1175 ft | 8 kts | 247° |
| 2026-05-06 19:54 | 50.10589 | 14.25388 | 1174 ft | 9 kts | 258° |
| 2026-05-06 19:54 | 50.10576 | 14.25282 | 1175 ft | 11 kts | 259° |
| 2026-05-06 19:54 | 50.10574 | 14.25265 | 1172 ft | 0 kts | 259° |
| 2026-05-06 19:57 | 50.10573 | 14.25263 | 1172 ft | 0 kts | 259° |
| 2026-05-06 20:01 | 50.10572 | 14.25249 | 1172 ft | 4 kts | 259° |
| 2026-05-06 20:01 | 50.10553 | 14.25168 | 1170 ft | 11 kts | 242° |
| 2026-05-06 20:01 | 50.10499 | 14.25168 | 1174 ft | 9 kts | 129° |
| 2026-05-06 20:02 | 50.10419 | 14.25331 | 1175 ft | 45 kts | 127° |
| 2026-05-06 20:02 | 50.10091 | 14.26006 | 1188 ft | 109 kts | 127° |
| 2026-05-06 20:02 | 50.09527 | 14.27169 | 1218 ft | 158 kts | 128° |
| 2026-05-06 20:02 | 50.08822 | 14.28712 | 1271 ft | 191 kts | 126° |
| 2026-05-06 20:03 | 50.07915 | 14.30631 | 1757 ft | 301 kts | 126° |
| 2026-05-06 20:03 | 50.06750 | 14.33182 | 2897 ft | 270 kts | 126° |
| 2026-05-06 20:03 | 50.05713 | 14.35385 | 3813 ft | 233 kts | 127° |
| 2026-05-06 20:03 | 50.04767 | 14.37396 | 3831 ft | 235 kts | 129° |
| 2026-05-06 20:04 | 50.03653 | 14.39432 | 3432 ft | 255 kts | 131° |
| 2026-05-06 20:04 | 50.02471 | 14.41486 | 3362 ft | 260 kts | 133° |
| 2026-05-06 20:04 | 50.01246 | 14.43525 | 3700 ft | 247 kts | 134° |
| 2026-05-06 20:04 | 50.00095 | 14.45395 | 3853 ft | 242 kts | 130° |
| 2026-05-06 20:05 | 49.99185 | 14.47680 | 3636 ft | 254 kts | 111° |
| 2026-05-06 20:05 | 49.98748 | 14.50417 | 3658 ft | 270 kts | 95° |
| 2026-05-06 20:05 | 49.98914 | 14.53279 | 4459 ft | 263 kts | 68° |
| 2026-05-06 20:05 | 49.99926 | 14.55544 | 5357 ft | 253 kts | 39° |
| 2026-05-06 20:06 | 50.01444 | 14.56915 | 5948 ft | 256 kts | 23° |
| 2026-05-06 20:06 | 50.03103 | 14.57984 | 6535 ft | 257 kts | 21° |
| 2026-05-06 20:06 | 50.04742 | 14.58976 | 7390 ft | 248 kts | 20° |
| 2026-05-06 20:06 | 50.06313 | 14.60027 | 8084 ft | 247 kts | 27° |
| 2026-05-06 20:07 | 50.07804 | 14.61508 | 8358 ft | 264 kts | 33° |
| 2026-05-06 20:07 | 50.09445 | 14.62922 | 8785 ft | 272 kts | 24° |
| 2026-05-06 20:07 | 50.11194 | 14.63913 | 9583 ft | 264 kts | 11° |
| 2026-05-06 20:07 | 50.13007 | 14.63999 | 10081 ft | 270 kts | 349° |
| 2026-05-06 20:08 | 50.14776 | 14.62817 | 10180 ft | 290 kts | 321° |
| 2026-05-06 20:08 | 50.16047 | 14.60289 | 10556 ft | 298 kts | 291° |
| 2026-05-06 20:08 | 50.16369 | 14.57215 | 11426 ft | 286 kts | 270° |
| 2026-05-06 20:08 | 50.16365 | 14.54119 | 12358 ft | 273 kts | 269° |
| 2026-05-06 20:09 | 50.16340 | 14.51244 | 13267 ft | 261 kts | 269° |
| 2026-05-06 20:09 | 50.16302 | 14.48423 | 13601 ft | 271 kts | 269° |
| 2026-05-06 20:09 | 50.16344 | 14.45363 | 13557 ft | 294 kts | 274° |
| 2026-05-06 20:09 | 50.16523 | 14.42130 | 14003 ft | 298 kts | 276° |
| 2026-05-06 20:10 | 50.16765 | 14.39040 | 15025 ft | 278 kts | 277° |
| 2026-05-06 20:10 | 50.17041 | 14.36110 | 15796 ft | 270 kts | 279° |
| 2026-05-06 20:10 | 50.17356 | 14.33143 | 15857 ft | 288 kts | 278° |
| 2026-05-06 20:10 | 50.17614 | 14.29898 | 15844 ft | 308 kts | 276° |
| 2026-05-06 20:11 | 50.17841 | 14.26575 | 16337 ft | 308 kts | 276° |
| 2026-05-06 20:11 | 50.18065 | 14.23330 | 17261 ft | 291 kts | 276° |
| 2026-05-06 20:11 | 50.18297 | 14.20255 | 17990 ft | 284 kts | 277° |
| 2026-05-06 20:11 | 50.18540 | 14.17123 | 18087 ft | 299 kts | 277° |
| 2026-05-06 20:12 | 50.18808 | 14.13825 | 17990 ft | 320 kts | 278° |
| 2026-05-06 20:12 | 50.19518 | 14.10448 | 18212 ft | 328 kts | 297° |
| 2026-05-06 20:12 | 50.20195 | 14.08358 | 18692 ft | 320 kts | 297° |
| 2026-05-06 20:12 | 50.21174 | 14.05380 | 19785 ft | 298 kts | 295° |
| 2026-05-06 20:13 | 50.22389 | 14.01567 | 20315 ft | 302 kts | 297° |
| 2026-05-06 20:13 | 50.23382 | 13.98520 | 20064 ft | 327 kts | 297° |
| 2026-05-06 20:13 | 50.24457 | 13.95300 | 20193 ft | 337 kts | 297° |
| 2026-05-06 20:13 | 50.25483 | 13.92088 | 21039 ft | 321 kts | 295° |
| 2026-05-06 20:14 | 50.26092 | 13.89983 | 21696 ft | 309 kts | 294° |
| 2026-05-06 20:14 | 50.26951 | 13.86931 | 22189 ft | 308 kts | 293° |
| 2026-05-06 20:14 | 50.27834 | 13.83772 | 22021 ft | 329 kts | 293° |
| 2026-05-06 20:14 | 50.28779 | 13.80391 | 21887 ft | 347 kts | 294° |
| 2026-05-06 20:15 | 50.29830 | 13.76945 | 21777 ft | 364 kts | 297° |
| 2026-05-06 20:15 | 50.30997 | 13.73331 | 21680 ft | 381 kts | 296° |
| 2026-05-06 20:15 | 50.32528 | 13.68172 | 21681 ft | 398 kts | 294° |
| 2026-05-06 20:15 | 50.33287 | 13.65530 | 21710 ft | 406 kts | 294° |
| 2026-05-06 20:16 | 50.34488 | 13.61460 | 21842 ft | 414 kts | 295° |
| 2026-05-06 20:16 | 50.35722 | 13.57373 | 22210 ft | 416 kts | 295° |
| 2026-05-06 20:16 | 50.36949 | 13.53260 | 22615 ft | 417 kts | 295° |
| 2026-05-06 20:16 | 50.38173 | 13.49098 | 22742 ft | 426 kts | 294° |
| 2026-05-06 20:17 | 50.39415 | 13.44873 | 23149 ft | 427 kts | 295° |
| 2026-05-06 20:17 | 50.40663 | 13.40651 | 23529 ft | 428 kts | 295° |
| 2026-05-06 20:17 | 50.41886 | 13.36509 | 23900 ft | 429 kts | 295° |
| 2026-05-06 20:17 | 50.43138 | 13.32248 | 24275 ft | 430 kts | 294° |
| 2026-05-06 20:18 | 50.44387 | 13.27980 | 24651 ft | 431 kts | 294° |
| 2026-05-06 20:18 | 50.45640 | 13.23704 | 25029 ft | 432 kts | 294° |
| 2026-05-06 20:18 | 50.46877 | 13.19475 | 25396 ft | 433 kts | 294° |
| 2026-05-06 20:18 | 50.48136 | 13.15162 | 25768 ft | 434 kts | 294° |
| 2026-05-06 20:19 | 50.49394 | 13.10841 | 26141 ft | 435 kts | 294° |
| 2026-05-06 20:19 | 50.50666 | 13.06464 | 26517 ft | 436 kts | 294° |
| 2026-05-06 20:19 | 50.51911 | 13.02177 | 26891 ft | 436 kts | 294° |
| 2026-05-06 20:19 | 50.53184 | 12.97784 | 27258 ft | 436 kts | 294° |
| 2026-05-06 20:20 | 50.54423 | 12.93499 | 27623 ft | 439 kts | 294° |
| 2026-05-06 20:20 | 50.55684 | 12.89128 | 27989 ft | 439 kts | 294° |
| 2026-05-06 20:20 | 50.56946 | 12.84750 | 28366 ft | 439 kts | 294° |
| 2026-05-06 20:20 | 50.58204 | 12.80375 | 28734 ft | 438 kts | 294° |
| 2026-05-06 20:21 | 50.59456 | 12.76015 | 29097 ft | 437 kts | 294° |
| 2026-05-06 20:21 | 50.60707 | 12.71646 | 29461 ft | 436 kts | 294° |
| 2026-05-06 20:21 | 50.61956 | 12.67281 | 29828 ft | 435 kts | 294° |
| 2026-05-06 20:21 | 50.63192 | 12.62953 | 30197 ft | 434 kts | 294° |
| 2026-05-06 20:22 | 50.64424 | 12.58627 | 30558 ft | 432 kts | 294° |
| 2026-05-06 20:22 | 50.65654 | 12.54305 | 30919 ft | 430 kts | 294° |
| 2026-05-06 20:22 | 50.66874 | 12.50006 | 31276 ft | 428 kts | 294° |
| 2026-05-06 20:22 | 50.68085 | 12.45734 | 31652 ft | 426 kts | 294° |
| 2026-05-06 20:23 | 50.69283 | 12.41499 | 32143 ft | 420 kts | 294° |
| 2026-05-06 20:23 | 50.70464 | 12.37318 | 32613 ft | 414 kts | 294° |
| 2026-05-06 20:23 | 50.71627 | 12.33191 | 33089 ft | 408 kts | 294° |
| 2026-05-06 20:23 | 50.72777 | 12.29108 | 33303 ft | 409 kts | 294° |
| 2026-05-06 20:24 | 50.75123 | 12.20748 | 33300 ft | 423 kts | 294° |
| 2026-05-06 20:24 | 50.77536 | 12.12119 | 33322 ft | 436 kts | 294° |
| 2026-05-06 20:25 | 50.79998 | 12.03283 | 33358 ft | 448 kts | 294° |
| 2026-05-06 20:25 | 50.82534 | 11.94148 | 33387 ft | 460 kts | 293° |
| 2026-05-06 20:26 | 50.85127 | 11.84768 | 33476 ft | 471 kts | 293° |
| 2026-05-06 20:26 | 50.86415 | 11.80101 | 34253 ft | 475 kts | 288° |
| 2026-05-06 20:26 | 50.87733 | 11.75306 | 34034 ft | 475 kts | 288° |
| 2026-05-06 20:27 | 50.89050 | 11.70531 | 33809 ft | 469 kts | 288° |
| 2026-05-06 20:27 | 50.90328 | 11.65875 | 33788 ft | 455 kts | 287° |
| 2026-05-06 20:27 | 50.92814 | 11.56732 | 33788 ft | 449 kts | 287° |
| 2026-05-06 20:28 | 50.95284 | 11.47669 | 33788 ft | 447 kts | 287° |
| 2026-05-06 20:28 | 50.97719 | 11.38677 | 33792 ft | 446 kts | 287° |
| 2026-05-06 20:29 | 51.00181 | 11.29556 | 33806 ft | 451 kts | 287° |
| 2026-05-06 20:29 | 51.02647 | 11.20391 | 33827 ft | 451 kts | 287° |
| 2026-05-06 20:30 | 51.06318 | 11.06674 | 33836 ft | 447 kts | 287° |
| 2026-05-06 20:31 | 51.08737 | 10.97583 | 33841 ft | 447 kts | 287° |
| 2026-05-06 20:31 | 51.11154 | 10.88470 | 33831 ft | 448 kts | 287° |
| 2026-05-06 20:32 | 51.13559 | 10.79364 | 33831 ft | 448 kts | 287° |
| 2026-05-06 20:32 | 51.15983 | 10.70152 | 33827 ft | 448 kts | 287° |
| 2026-05-06 20:33 | 51.18374 | 10.61027 | 33819 ft | 449 kts | 287° |
| 2026-05-06 20:33 | 51.20772 | 10.51837 | 33814 ft | 449 kts | 287° |
| 2026-05-06 20:34 | 51.23174 | 10.42593 | 33802 ft | 451 kts | 287° |
| 2026-05-06 20:34 | 51.25647 | 10.33388 | 33828 ft | 454 kts | 292° |
| 2026-05-06 20:35 | 51.28565 | 10.24413 | 33811 ft | 455 kts | 292° |
| 2026-05-06 20:35 | 51.31446 | 10.15419 | 33819 ft | 455 kts | 292° |
| 2026-05-06 20:36 | 51.34328 | 10.06432 | 33828 ft | 455 kts | 292° |
| 2026-05-06 20:36 | 51.37206 | 9.97409 | 33830 ft | 455 kts | 293° |
| 2026-05-06 20:37 | 51.40074 | 9.88387 | 33836 ft | 454 kts | 293° |
| 2026-05-06 20:37 | 51.42922 | 9.79399 | 33849 ft | 454 kts | 293° |
| 2026-05-06 20:38 | 51.45768 | 9.70381 | 33852 ft | 454 kts | 293° |
| 2026-05-06 20:38 | 51.48618 | 9.61317 | 33856 ft | 456 kts | 294° |
| 2026-05-06 20:39 | 51.51465 | 9.52230 | 33862 ft | 456 kts | 294° |
| 2026-05-06 20:39 | 51.54179 | 9.43533 | 33864 ft | 456 kts | 293° |
| 2026-05-06 20:40 | 51.57009 | 9.34434 | 33835 ft | 456 kts | 293° |
| 2026-05-06 20:40 | 51.59839 | 9.25303 | 33841 ft | 456 kts | 293° |
| 2026-05-06 20:41 | 51.62461 | 9.16810 | 33844 ft | 456 kts | 293° |
| 2026-05-06 20:41 | 51.65285 | 9.07644 | 33860 ft | 456 kts | 293° |
| 2026-05-06 20:42 | 51.68087 | 8.98476 | 33868 ft | 456 kts | 293° |
| 2026-05-06 20:42 | 51.70865 | 8.89392 | 33879 ft | 456 kts | 293° |
| 2026-05-06 20:43 | 51.73651 | 8.80222 | 33880 ft | 455 kts | 293° |
| 2026-05-06 20:43 | 51.76208 | 8.70997 | 33332 ft | 452 kts | 291° |
| 2026-05-06 20:43 | 51.77467 | 8.66371 | 32762 ft | 450 kts | 291° |
| 2026-05-06 20:44 | 51.78722 | 8.61753 | 32201 ft | 447 kts | 291° |
| 2026-05-06 20:44 | 51.79963 | 8.57153 | 31653 ft | 443 kts | 291° |
| 2026-05-06 20:44 | 51.81188 | 8.52603 | 31136 ft | 440 kts | 291° |
| 2026-05-06 20:44 | 51.82403 | 8.48091 | 30626 ft | 437 kts | 291° |
| 2026-05-06 20:45 | 51.83613 | 8.43591 | 30120 ft | 434 kts | 291° |
| 2026-05-06 20:45 | 51.84808 | 8.39135 | 29578 ft | 430 kts | 291° |
| 2026-05-06 20:45 | 51.85989 | 8.34720 | 29012 ft | 427 kts | 291° |
| 2026-05-06 20:45 | 51.87162 | 8.30328 | 28457 ft | 424 kts | 291° |
| 2026-05-06 20:46 | 51.88326 | 8.25963 | 27919 ft | 420 kts | 291° |
| 2026-05-06 20:46 | 51.89466 | 8.21679 | 27409 ft | 417 kts | 291° |
| 2026-05-06 20:46 | 51.90609 | 8.17375 | 26885 ft | 414 kts | 291° |
| 2026-05-06 20:46 | 51.91742 | 8.13103 | 26387 ft | 411 kts | 291° |
| 2026-05-06 20:47 | 51.92865 | 8.08859 | 25886 ft | 408 kts | 291° |
| 2026-05-06 20:47 | 51.93969 | 8.04677 | 25396 ft | 405 kts | 291° |
| 2026-05-06 20:47 | 51.95077 | 8.00475 | 24928 ft | 402 kts | 291° |
| 2026-05-06 20:47 | 51.96171 | 7.96320 | 24438 ft | 399 kts | 291° |
| 2026-05-06 20:48 | 51.97237 | 7.92262 | 23990 ft | 397 kts | 291° |
| 2026-05-06 20:48 | 51.98312 | 7.88160 | 23534 ft | 394 kts | 291° |
| 2026-05-06 20:48 | 51.99383 | 7.84069 | 23028 ft | 392 kts | 292° |
| 2026-05-06 20:48 | 52.00441 | 7.80019 | 22540 ft | 388 kts | 292° |
| 2026-05-06 20:49 | 52.01488 | 7.76006 | 22067 ft | 384 kts | 292° |
| 2026-05-06 20:49 | 52.02527 | 7.72015 | 21561 ft | 381 kts | 292° |
| 2026-05-06 20:49 | 52.03551 | 7.68076 | 21095 ft | 378 kts | 291° |
| 2026-05-06 20:49 | 52.04566 | 7.64160 | 20626 ft | 375 kts | 291° |
| 2026-05-06 20:50 | 52.05557 | 7.60336 | 20173 ft | 372 kts | 291° |
| 2026-05-06 20:50 | 52.06557 | 7.56467 | 19920 ft | 366 kts | 291° |
| 2026-05-06 20:50 | 52.07635 | 7.52730 | 19891 ft | 366 kts | 303° |
| 2026-05-06 20:50 | 52.08845 | 7.49136 | 19938 ft | 363 kts | 290° |
| 2026-05-06 20:51 | 52.09720 | 7.45288 | 20005 ft | 364 kts | 295° |
| 2026-05-06 20:51 | 52.11618 | 7.42822 | 19986 ft | 370 kts | 345° |
| 2026-05-06 20:51 | 52.13973 | 7.41266 | 20190 ft | 367 kts | 321° |
| 2026-05-06 20:51 | 52.15673 | 7.38249 | 20007 ft | 361 kts | 297° |
| 2026-05-06 20:52 | 52.16395 | 7.34387 | 19603 ft | 357 kts | 271° |
| 2026-05-06 20:52 | 52.16006 | 7.30445 | 19150 ft | 356 kts | 249° |
| 2026-05-06 20:52 | 52.14986 | 7.26770 | 18671 ft | 355 kts | 244° |
| 2026-05-06 20:52 | 52.13890 | 7.23135 | 18006 ft | 360 kts | 245° |
| 2026-05-06 20:53 | 52.12912 | 7.19371 | 17153 ft | 367 kts | 250° |
| 2026-05-06 20:53 | 52.12129 | 7.15377 | 16426 ft | 374 kts | 256° |
| 2026-05-06 20:53 | 52.11632 | 7.11186 | 16220 ft | 377 kts | 264° |
| 2026-05-06 20:53 | 52.11556 | 7.06854 | 16260 ft | 392 kts | 272° |
| 2026-05-06 20:54 | 52.11723 | 7.02340 | 16318 ft | 408 kts | 275° |
| 2026-05-06 20:54 | 52.11906 | 6.97648 | 16360 ft | 422 kts | 272° |
| 2026-05-06 20:54 | 52.11915 | 6.92775 | 16396 ft | 436 kts | 269° |
| 2026-05-06 20:54 | 52.11849 | 6.87869 | 16330 ft | 430 kts | 270° |
| 2026-05-06 20:55 | 52.11862 | 6.83068 | 16301 ft | 427 kts | 271° |
| 2026-05-06 20:55 | 52.11924 | 6.78266 | 15837 ft | 415 kts | 271° |
| 2026-05-06 20:55 | 52.11953 | 6.73604 | 15338 ft | 408 kts | 271° |
| 2026-05-06 20:55 | 52.11947 | 6.69103 | 14914 ft | 404 kts | 270° |
| 2026-05-06 20:56 | 52.11949 | 6.64518 | 14813 ft | 406 kts | 271° |
| 2026-05-06 20:56 | 52.11969 | 6.59839 | 14830 ft | 423 kts | 271° |
| 2026-05-06 20:56 | 52.11985 | 6.54936 | 14844 ft | 440 kts | 271° |
| 2026-05-06 20:56 | 52.11989 | 6.49863 | 14665 ft | 459 kts | 270° |
| 2026-05-06 20:57 | 52.11989 | 6.44526 | 14211 ft | 483 kts | 271° |
| 2026-05-06 20:57 | 52.11998 | 6.38968 | 13733 ft | 487 kts | 272° |
| 2026-05-06 20:57 | 52.12028 | 6.33782 | 13147 ft | 437 kts | 271° |
| 2026-05-06 20:57 | 52.12005 | 6.28986 | 12585 ft | 413 kts | 270° |
| 2026-05-06 20:58 | 52.11975 | 6.24402 | 12021 ft | 396 kts | 270° |
| 2026-05-06 20:58 | 52.11973 | 6.21474 | 11656 ft | 387 kts | 271° |
| 2026-05-06 20:58 | 52.11983 | 6.17148 | 11133 ft | 379 kts | 271° |
| 2026-05-06 20:58 | 52.11981 | 6.12918 | 10332 ft | 371 kts | 271° |
| 2026-05-06 20:59 | 52.11967 | 6.08577 | 8798 ft | 390 kts | 271° |
| 2026-05-06 20:59 | 52.11952 | 6.04128 | 7443 ft | 397 kts | 271° |
| 2026-05-06 20:59 | 52.11940 | 5.99708 | 6778 ft | 383 kts | 271° |
| 2026-05-06 20:59 | 52.11927 | 5.95440 | 6271 ft | 370 kts | 271° |
| 2026-05-06 21:00 | 52.11913 | 5.91315 | 5737 ft | 360 kts | 271° |
| 2026-05-06 21:00 | 52.11897 | 5.87281 | 5194 ft | 353 kts | 271° |
| 2026-05-06 21:00 | 52.11881 | 5.83370 | 4702 ft | 347 kts | 271° |
| 2026-05-06 21:00 | 52.11862 | 5.79406 | 4153 ft | 344 kts | 271° |
| 2026-05-06 21:01 | 52.11843 | 5.75581 | 3641 ft | 342 kts | 271° |
| 2026-05-06 21:01 | 52.11822 | 5.71791 | 3443 ft | 322 kts | 271° |
| 2026-05-06 21:01 | 52.11800 | 5.68330 | 3180 ft | 292 kts | 271° |
| 2026-05-06 21:01 | 52.11781 | 5.65131 | 2542 ft | 276 kts | 271° |
| 2026-05-06 21:02 | 52.11764 | 5.62081 | 2029 ft | 261 kts | 272° |
| 2026-05-06 21:02 | 52.11746 | 5.59234 | 1979 ft | 251 kts | 272° |
| 2026-05-06 21:02 | 52.11727 | 5.56486 | 1971 ft | 235 kts | 272° |
| 2026-05-06 21:02 | 52.11712 | 5.53746 | 1978 ft | 249 kts | 272° |
| 2026-05-06 21:03 | 52.11694 | 5.50871 | 1988 ft | 256 kts | 272° |
| 2026-05-06 21:03 | 52.11671 | 5.47956 | 1987 ft | 261 kts | 272° |
| 2026-05-06 21:03 | 52.11647 | 5.45029 | 1985 ft | 255 kts | 272° |
| 2026-05-06 21:03 | 52.11625 | 5.42101 | 1982 ft | 258 kts | 272° |
| 2026-05-06 21:04 | 52.11602 | 5.39236 | 1976 ft | 260 kts | 272° |
| 2026-05-06 21:04 | 52.11579 | 5.36448 | 1972 ft | 256 kts | 272° |
| 2026-05-06 21:04 | 52.11554 | 5.33489 | 1980 ft | 261 kts | 272° |
| 2026-05-06 21:04 | 52.11527 | 5.30559 | 1983 ft | 260 kts | 272° |
| 2026-05-06 21:05 | 52.11501 | 5.27676 | 2008 ft | 250 kts | 272° |
| 2026-05-06 21:05 | 52.11474 | 5.24883 | 2012 ft | 247 kts | 272° |
| 2026-05-06 21:05 | 52.11449 | 5.22026 | 2008 ft | 258 kts | 271° |
| 2026-05-06 21:05 | 52.11420 | 5.19051 | 2003 ft | 262 kts | 272° |
| 2026-05-06 21:06 | 52.11389 | 5.16083 | 1999 ft | 266 kts | 271° |
| 2026-05-06 21:06 | 52.11357 | 5.13083 | 1999 ft | 265 kts | 271° |
| 2026-05-06 21:06 | 52.11326 | 5.10073 | 2011 ft | 264 kts | 271° |
| 2026-05-06 21:06 | 52.11294 | 5.07093 | 2009 ft | 259 kts | 271° |
| 2026-05-06 21:07 | 52.11261 | 5.04257 | 2010 ft | 245 kts | 272° |
| 2026-05-06 21:07 | 52.11230 | 5.01459 | 2005 ft | 247 kts | 272° |
| 2026-05-06 21:07 | 52.11199 | 4.98676 | 2006 ft | 247 kts | 272° |
| 2026-05-06 21:07 | 52.11167 | 4.95890 | 2005 ft | 246 kts | 271° |
| 2026-05-06 21:08 | 52.11134 | 4.93142 | 2009 ft | 246 kts | 271° |
| 2026-05-06 21:08 | 52.11100 | 4.90361 | 2003 ft | 246 kts | 271° |
| 2026-05-06 21:08 | 52.11066 | 4.87564 | 1997 ft | 248 kts | 271° |
| 2026-05-06 21:08 | 52.11030 | 4.84878 | 1986 ft | 223 kts | 271° |
| 2026-05-06 21:09 | 52.10998 | 4.82470 | 1984 ft | 204 kts | 272° |
| 2026-05-06 21:09 | 52.11279 | 4.80373 | 1997 ft | 182 kts | 305° |
| 2026-05-06 21:09 | 52.12073 | 4.78791 | 1985 ft | 179 kts | 318° |
| 2026-05-06 21:09 | 52.12925 | 4.77347 | 1994 ft | 177 kts | 321° |
| 2026-05-06 21:10 | 52.13966 | 4.76430 | 1990 ft | 169 kts | 355° |
| 2026-05-06 21:10 | 52.15118 | 4.76450 | 2002 ft | 165 kts | 7° |
| 2026-05-06 21:10 | 52.16265 | 4.76554 | 2001 ft | 165 kts | 7° |
| 2026-05-06 21:10 | 52.17415 | 4.76661 | 1995 ft | 163 kts | 7° |
| 2026-05-06 21:11 | 52.18460 | 4.76754 | 1993 ft | 152 kts | 7° |
| 2026-05-06 21:11 | 52.19496 | 4.76848 | 1902 ft | 152 kts | 7° |
| 2026-05-06 21:11 | 52.20532 | 4.76942 | 1629 ft | 146 kts | 8° |
| 2026-05-06 21:11 | 52.21542 | 4.77035 | 1333 ft | 145 kts | 7° |
| 2026-05-06 21:12 | 52.22540 | 4.77127 | 1037 ft | 143 kts | 7° |
| 2026-05-06 21:12 | 52.23519 | 4.77213 | 819 ft | 136 kts | 7° |
| 2026-05-06 21:12 | 52.24480 | 4.77290 | 851 ft | 142 kts | 7° |
| 2026-05-06 21:12 | 52.25519 | 4.77411 | 712 ft | 154 kts | 6° |
| 2026-05-06 21:13 | 52.26565 | 4.77496 | 499 ft | 149 kts | 3° |
| 2026-05-06 21:13 | 52.27603 | 4.77595 | 272 ft | 147 kts | 5° |
| 2026-05-06 21:13 | 52.28611 | 4.77689 | 84 ft | 142 kts | 5° |
| 2026-05-06 21:13 | 52.29561 | 4.77782 | 3 ft | 127 kts | 5° |
| 2026-05-06 21:14 | 52.30301 | 4.77849 | 1 ft | 79 kts | 1° |
| 2026-05-06 21:14 | 52.30618 | 4.77647 | 0 ft | 35 kts | 331° |
| 2026-05-06 21:14 | 52.30787 | 4.77586 | 0 ft | 17 kts | 347° |
| 2026-05-06 21:14 | 52.30831 | 4.77498 | 0 ft | 7 kts | 275° |
| 2026-05-06 21:15 | 52.30833 | 4.77459 | 0 ft | 0 kts | 274° |
| 2026-05-06 21:15 | 52.30834 | 4.77435 | 0 ft | 6 kts | 274° |
| 2026-05-06 21:15 | 52.30843 | 4.77341 | 2 ft | 8 kts | 295° |
| 2026-05-06 21:15 | 52.30883 | 4.77303 | 0 ft | 6 kts | 359° |
| 2026-05-06 21:16 | 52.30886 | 4.77303 | 0 ft | 0 kts | 1° |